createdAt,value
2024-04-30T00:00:11.735Z,9.68
2024-04-30T00:01:11.785Z,9.69
2024-04-30T00:02:11.825Z,9.77
2024-04-30T00:03:11.713Z,9.83
2024-04-30T00:04:11.742Z,9.80
2024-04-30T00:05:11.840Z,9.80
2024-04-30T00:06:11.696Z,9.79
2024-04-30T00:07:12.042Z,9.66
2024-04-30T00:08:11.652Z,9.61
2024-04-30T00:09:11.644Z,9.56
2024-04-30T00:10:11.652Z,9.59
2024-04-30T00:11:11.678Z,9.65
2024-04-30T00:12:11.841Z,9.72
2024-04-30T00:13:11.606Z,9.73
2024-04-30T00:14:11.591Z,9.77
2024-04-30T00:15:13.168Z,9.83
2024-04-30T00:16:11.597Z,9.94
2024-04-30T00:17:11.558Z,10.01
2024-04-30T00:18:11.546Z,10.07
2024-04-30T00:19:11.703Z,10.13
2024-04-30T00:20:11.602Z,10.15
2024-04-30T00:21:11.698Z,9.87
2024-04-30T00:22:11.516Z,9.79
2024-04-30T00:23:11.498Z,9.68
2024-04-30T00:24:11.483Z,9.64
2024-04-30T00:25:11.563Z,9.66
2024-04-30T00:26:11.489Z,9.73
2024-04-30T00:27:11.459Z,9.76
2024-04-30T00:28:11.512Z,9.77
2024-04-30T00:29:11.436Z,9.72
2024-04-30T00:30:11.440Z,9.58
2024-04-30T00:31:11.464Z,9.54
2024-04-30T00:32:11.421Z,9.62
2024-04-30T00:33:11.447Z,9.68
2024-04-30T00:34:11.408Z,9.74
2024-04-30T00:35:11.402Z,9.55
2024-04-30T00:36:11.359Z,9.43
2024-04-30T00:37:11.381Z,9.39
2024-04-30T00:38:11.343Z,9.18
2024-04-30T00:39:11.364Z,9.06
2024-04-30T00:40:11.363Z,9.10
2024-04-30T00:41:11.312Z,9.11
2024-04-30T00:42:11.296Z,9.08
2024-04-30T00:43:11.318Z,9.08
2024-04-30T00:44:11.295Z,9.10
2024-04-30T00:45:11.269Z,9.25
2024-04-30T00:46:11.312Z,9.23
2024-04-30T00:47:11.244Z,9.21
2024-04-30T00:48:11.269Z,9.23
2024-04-30T00:49:11.280Z,9.22
2024-04-30T00:50:11.212Z,9.08
2024-04-30T00:51:11.211Z,9.00
2024-04-30T00:52:11.196Z,9.00
2024-04-30T00:53:11.197Z,9.13
2024-04-30T00:54:11.185Z,9.22
2024-04-30T00:55:11.183Z,9.36
2024-04-30T00:56:11.156Z,9.29
2024-04-30T00:57:11.142Z,9.23
2024-04-30T00:58:11.149Z,9.16
2024-04-30T00:59:11.119Z,8.99
2024-04-30T01:00:11.111Z,8.82
2024-04-30T01:01:11.144Z,8.58
2024-04-30T01:02:11.206Z,8.49
2024-04-30T01:03:11.149Z,8.38
2024-04-30T01:04:11.107Z,8.38
2024-04-30T01:05:11.061Z,8.41
2024-04-30T01:06:11.050Z,8.52
2024-04-30T01:07:11.085Z,8.78
2024-04-30T01:08:11.036Z,8.99
2024-04-30T01:09:11.044Z,9.03
2024-04-30T01:10:11.026Z,9.04
2024-04-30T01:11:11.003Z,8.91
2024-04-30T01:12:11.011Z,8.64
2024-04-30T01:13:11.034Z,8.49
2024-04-30T01:14:10.955Z,8.42
2024-04-30T01:15:10.959Z,8.48
2024-04-30T01:16:11.021Z,8.61
2024-04-30T01:17:11.003Z,8.74
2024-04-30T01:18:10.972Z,8.78
2024-04-30T01:19:10.941Z,8.76
2024-04-30T01:20:10.894Z,8.79
2024-04-30T01:21:10.908Z,8.84
2024-04-30T01:22:10.977Z,8.73
2024-04-30T01:23:10.872Z,8.66
2024-04-30T01:24:10.860Z,8.64
2024-04-30T01:25:10.899Z,8.61
2024-04-30T01:26:10.847Z,8.67
2024-04-30T01:27:10.852Z,8.66
2024-04-30T01:28:10.857Z,8.66
2024-04-30T01:29:10.808Z,8.70
2024-04-30T01:30:10.803Z,8.70
2024-04-30T01:31:10.833Z,8.71
2024-04-30T01:32:10.782Z,8.87
2024-04-30T01:33:10.870Z,9.00
2024-04-30T01:34:10.766Z,9.02
2024-04-30T01:35:10.778Z,8.95
2024-04-30T01:36:10.756Z,8.87
2024-04-30T01:37:10.747Z,8.87
2024-04-30T01:38:10.722Z,8.88
2024-04-30T01:39:10.702Z,8.91
2024-04-30T01:40:10.793Z,8.92
2024-04-30T01:41:10.683Z,8.89
2024-04-30T01:42:10.665Z,8.91
2024-04-30T01:43:10.734Z,8.89
2024-04-30T01:44:10.641Z,8.73
2024-04-30T01:45:10.661Z,8.55
2024-04-30T01:46:10.646Z,8.49
2024-04-30T01:47:10.628Z,8.48
2024-04-30T01:48:10.728Z,8.45
2024-04-30T01:49:10.644Z,8.51
2024-04-30T01:50:10.783Z,8.55
2024-04-30T01:51:10.599Z,8.52
2024-04-30T01:52:10.581Z,8.52
2024-04-30T01:53:10.552Z,8.55
2024-04-30T01:54:10.600Z,8.55
2024-04-30T01:55:10.559Z,8.48
2024-04-30T01:56:10.528Z,8.46
2024-04-30T01:57:10.533Z,8.42
2024-04-30T01:58:10.507Z,8.38
2024-04-30T01:59:10.515Z,8.38
2024-04-30T02:00:10.482Z,8.45
2024-04-30T02:01:10.548Z,8.46
2024-04-30T02:02:10.518Z,8.49
2024-04-30T02:03:10.494Z,8.51
2024-04-30T02:04:10.463Z,8.61
2024-04-30T02:05:16.630Z,8.70
2024-04-30T02:06:10.419Z,8.79
2024-04-30T02:07:10.434Z,8.89
2024-04-30T02:08:10.432Z,8.85
2024-04-30T02:09:10.398Z,8.78
2024-04-30T02:10:10.429Z,8.70
2024-04-30T02:11:10.389Z,8.61
2024-04-30T02:12:10.344Z,8.44
2024-04-30T02:13:10.418Z,8.31
2024-04-30T02:14:10.345Z,8.26
2024-04-30T02:15:10.333Z,8.23
2024-04-30T02:16:10.364Z,8.20
2024-04-30T02:17:10.347Z,8.20
2024-04-30T02:18:10.390Z,8.23
2024-04-30T02:19:10.329Z,8.18
2024-04-30T02:20:10.266Z,8.23
2024-04-30T02:21:10.267Z,8.34
2024-04-30T02:22:10.286Z,8.49
2024-04-30T02:23:10.246Z,8.49
2024-04-30T02:24:10.245Z,8.44
2024-04-30T02:25:10.235Z,8.31
2024-04-30T02:26:10.209Z,8.18
2024-04-30T02:27:10.235Z,8.12
2024-04-30T02:28:10.232Z,8.12
2024-04-30T02:29:10.186Z,8.10
2024-04-30T02:30:10.173Z,8.12
2024-04-30T02:31:10.212Z,8.20
2024-04-30T02:32:10.197Z,8.24
2024-04-30T02:33:10.192Z,8.27
2024-04-30T02:34:10.129Z,8.28
2024-04-30T02:35:10.138Z,8.27
2024-04-30T02:36:10.129Z,8.38
2024-04-30T02:37:10.132Z,8.45
2024-04-30T02:38:10.092Z,8.51
2024-04-30T02:39:10.083Z,8.48
2024-04-30T02:40:10.136Z,8.48
2024-04-30T02:41:10.084Z,8.52
2024-04-30T02:42:10.056Z,8.41
2024-04-30T02:43:10.062Z,8.34
2024-04-30T02:44:10.055Z,8.30
2024-04-30T02:45:10.042Z,8.30
2024-04-30T02:46:10.038Z,8.31
2024-04-30T02:47:10.037Z,8.37
2024-04-30T02:48:10.013Z,8.45
2024-04-30T02:49:10.018Z,8.56
2024-04-30T02:50:09.995Z,8.58
2024-04-30T02:51:09.954Z,8.61
2024-04-30T02:52:09.969Z,8.60
2024-04-30T02:53:09.936Z,8.48
2024-04-30T02:54:09.930Z,8.31
2024-04-30T02:55:10.008Z,8.28
2024-04-30T02:56:09.893Z,8.27
2024-04-30T02:57:09.935Z,8.31
2024-04-30T02:58:09.931Z,8.33
2024-04-30T02:59:09.874Z,8.30
2024-04-30T03:00:09.858Z,8.34
2024-04-30T03:01:09.904Z,8.45
2024-04-30T03:02:09.872Z,8.46
2024-04-30T03:03:09.839Z,8.56
2024-04-30T03:04:09.957Z,8.63
2024-04-30T03:05:09.813Z,8.70
2024-04-30T03:06:09.820Z,8.76
2024-04-30T03:07:09.806Z,8.74
2024-04-30T03:08:09.781Z,8.81
2024-04-30T03:09:09.794Z,8.85
2024-04-30T03:10:09.845Z,8.85
2024-04-30T03:11:09.770Z,8.87
2024-04-30T03:12:09.727Z,8.70
2024-04-30T03:13:09.786Z,8.61
2024-04-30T03:14:09.736Z,8.64
2024-04-30T03:15:09.697Z,8.61
2024-04-30T03:16:09.700Z,8.46
2024-04-30T03:17:09.714Z,8.34
2024-04-30T03:18:09.733Z,8.30
2024-04-30T03:19:09.695Z,8.30
2024-04-30T03:20:09.593Z,8.34
2024-04-30T03:21:09.656Z,8.44
2024-04-30T03:22:09.680Z,8.53
2024-04-30T03:23:09.745Z,8.67
2024-04-30T03:24:09.576Z,8.74
2024-04-30T03:25:09.571Z,8.81
2024-04-30T03:26:09.532Z,8.85
2024-04-30T03:27:09.607Z,8.94
2024-04-30T03:28:09.633Z,9.04
2024-04-30T03:29:09.509Z,9.10
2024-04-30T03:30:09.500Z,9.13
2024-04-30T03:31:09.497Z,9.16
2024-04-30T03:32:09.535Z,9.19
2024-04-30T03:33:09.564Z,9.18
2024-04-30T03:34:09.491Z,8.94
2024-04-30T03:35:09.436Z,8.69
2024-04-30T03:36:09.463Z,8.60
2024-04-30T03:37:09.481Z,8.64
2024-04-30T03:38:09.424Z,8.67
2024-04-30T03:39:09.403Z,8.69
2024-04-30T03:40:09.454Z,8.73
2024-04-30T03:41:09.396Z,8.78
2024-04-30T03:42:09.367Z,8.82
2024-04-30T03:43:09.411Z,8.88
2024-04-30T03:44:09.350Z,8.91
2024-04-30T03:45:09.328Z,8.92
2024-04-30T03:46:09.385Z,8.91
2024-04-30T03:47:09.343Z,8.89
2024-04-30T03:48:09.359Z,8.91
2024-04-30T03:49:09.335Z,8.97
2024-04-30T03:50:09.304Z,9.04
2024-04-30T03:51:09.278Z,9.13
2024-04-30T03:52:09.335Z,9.22
2024-04-30T03:53:09.240Z,9.25
2024-04-30T03:54:09.265Z,9.23
2024-04-30T03:55:09.273Z,9.23
2024-04-30T03:56:09.228Z,9.22
2024-04-30T03:57:09.212Z,9.19
2024-04-30T03:58:09.209Z,9.23
2024-04-30T03:59:09.199Z,9.26
2024-04-30T04:00:09.541Z,9.32
2024-04-30T04:01:09.341Z,9.31
2024-04-30T04:02:09.154Z,9.34
2024-04-30T04:03:09.182Z,9.32
2024-04-30T04:04:09.289Z,9.28
2024-04-30T04:05:09.177Z,9.29
2024-04-30T04:06:09.117Z,9.34
2024-04-30T04:07:09.113Z,9.40
2024-04-30T04:08:09.097Z,9.41
2024-04-30T04:09:09.112Z,9.43
2024-04-30T04:10:09.124Z,9.48
2024-04-30T04:11:09.086Z,9.48
2024-04-30T04:12:09.051Z,9.50
2024-04-30T04:13:09.088Z,9.56
2024-04-30T04:14:09.055Z,9.62
2024-04-30T04:15:09.030Z,9.64
2024-04-30T04:16:09.050Z,9.61
2024-04-30T04:17:09.004Z,9.54
2024-04-30T04:18:09.072Z,9.55
2024-04-30T04:19:09.058Z,9.46
2024-04-30T04:20:08.987Z,9.29
2024-04-30T04:21:09.899Z,9.22
2024-04-30T04:22:09.040Z,9.21
2024-04-30T04:23:08.952Z,9.23
2024-04-30T04:24:08.937Z,9.29
2024-04-30T04:25:08.954Z,9.39
2024-04-30T04:26:08.930Z,9.43
2024-04-30T04:27:08.905Z,9.51
2024-04-30T04:28:08.919Z,9.59
2024-04-30T04:29:08.925Z,9.64
2024-04-30T04:30:08.878Z,9.61
2024-04-30T04:31:08.882Z,9.61
2024-04-30T04:32:08.868Z,9.59
2024-04-30T04:33:08.881Z,9.65
2024-04-30T04:34:08.846Z,9.74
2024-04-30T04:35:08.807Z,9.80
2024-04-30T04:36:08.801Z,9.86
2024-04-30T04:37:08.918Z,9.92
2024-04-30T04:38:08.785Z,9.97
2024-04-30T04:39:08.806Z,10.02
2024-04-30T04:40:08.935Z,10.05
2024-04-30T04:41:08.761Z,10.12
2024-04-30T04:42:08.752Z,10.17
2024-04-30T04:43:09.867Z,10.26
2024-04-30T04:44:08.727Z,10.35
2024-04-30T04:45:08.706Z,10.44
2024-04-30T04:46:08.789Z,10.44
2024-04-30T04:47:08.684Z,10.34
2024-04-30T04:48:08.876Z,10.31
2024-04-30T04:49:08.758Z,10.37
2024-04-30T04:50:08.656Z,10.51
2024-04-30T04:51:08.669Z,10.63
2024-04-30T04:52:08.695Z,10.68
2024-04-30T04:53:08.627Z,10.68
2024-04-30T04:54:08.607Z,10.64
2024-04-30T04:55:08.631Z,10.64
2024-04-30T04:56:08.625Z,10.67
2024-04-30T04:57:08.585Z,10.69
2024-04-30T04:58:08.604Z,10.72
2024-04-30T04:59:08.554Z,10.72
2024-04-30T05:00:08.581Z,10.74
2024-04-30T05:01:12.008Z,10.74
2024-04-30T05:02:08.617Z,10.72
2024-04-30T05:03:08.523Z,10.74
2024-04-30T05:04:08.713Z,10.76
2024-04-30T05:05:08.521Z,10.72
2024-04-30T05:06:08.495Z,10.71
2024-04-30T05:07:08.483Z,10.68
2024-04-30T05:08:08.483Z,10.67
2024-04-30T05:09:08.474Z,10.68
2024-04-30T05:10:08.513Z,10.71
2024-04-30T05:11:08.457Z,10.72
2024-04-30T05:12:08.431Z,10.82
2024-04-30T05:13:08.440Z,10.84
2024-04-30T05:14:08.442Z,10.92
2024-04-30T05:15:08.389Z,10.97
2024-04-30T05:16:08.404Z,11.04
2024-04-30T05:17:08.471Z,11.08
2024-04-30T05:18:08.391Z,11.15
2024-04-30T05:19:08.400Z,11.18
2024-04-30T05:20:08.342Z,11.23
2024-04-30T05:21:08.332Z,11.26
2024-04-30T05:22:08.331Z,11.33
2024-04-30T05:23:08.317Z,11.40
2024-04-30T05:24:08.368Z,11.43
2024-04-30T05:25:08.323Z,11.45
2024-04-30T05:26:08.275Z,11.48
2024-04-30T05:27:08.259Z,11.50
2024-04-30T05:28:08.314Z,11.57
2024-04-30T05:29:08.243Z,11.60
2024-04-30T05:30:08.246Z,11.68
2024-04-30T05:31:08.279Z,11.73
2024-04-30T05:32:08.241Z,11.83
2024-04-30T05:33:08.311Z,11.91
2024-04-30T05:34:08.242Z,12.02
2024-04-30T05:35:08.187Z,12.02
2024-04-30T05:36:08.171Z,12.07
2024-04-30T05:37:08.240Z,12.15
2024-04-30T05:38:08.164Z,12.24
2024-04-30T05:39:08.152Z,12.22
2024-04-30T05:40:08.154Z,12.29
2024-04-30T05:41:08.115Z,12.36
2024-04-30T05:42:08.131Z,12.35
2024-04-30T05:43:08.110Z,12.35
2024-04-30T05:44:08.097Z,12.24
2024-04-30T05:45:09.131Z,12.27
2024-04-30T05:46:08.130Z,12.29
2024-04-30T05:47:08.095Z,12.37
2024-04-30T05:48:08.207Z,12.49
2024-04-30T05:49:08.085Z,12.57
2024-04-30T05:50:08.033Z,12.64
2024-04-30T05:51:08.022Z,12.72
2024-04-30T05:52:08.051Z,12.76
2024-04-30T05:53:07.988Z,12.80
2024-04-30T05:54:07.984Z,12.78
2024-04-30T05:55:07.995Z,12.75
2024-04-30T05:56:07.995Z,12.76
2024-04-30T05:57:07.954Z,12.78
2024-04-30T05:58:08.001Z,12.76
2024-04-30T05:59:07.930Z,12.82
2024-04-30T06:00:07.930Z,12.95
2024-04-30T06:01:08.005Z,13.05
2024-04-30T06:02:07.909Z,13.13
2024-04-30T06:03:07.956Z,13.22
2024-04-30T06:04:07.935Z,13.33
2024-04-30T06:05:08.030Z,13.38
2024-04-30T06:06:07.905Z,13.42
2024-04-30T06:07:07.843Z,13.53
2024-04-30T06:08:07.854Z,13.52
2024-04-30T06:09:07.817Z,13.62
2024-04-30T06:10:07.958Z,13.68
2024-04-30T06:11:07.903Z,13.68
2024-04-30T06:12:07.796Z,13.72
2024-04-30T06:13:07.938Z,13.72
2024-04-30T06:14:07.784Z,13.68
2024-04-30T06:15:07.791Z,13.72
2024-04-30T06:16:07.812Z,13.70
2024-04-30T06:17:07.735Z,13.74
2024-04-30T06:18:07.836Z,13.87
2024-04-30T06:19:07.863Z,13.97
2024-04-30T06:20:07.738Z,14.11
2024-04-30T06:21:09.532Z,14.20
2024-04-30T06:22:07.759Z,14.32
2024-04-30T06:23:07.680Z,14.44
2024-04-30T06:24:07.730Z,14.53
2024-04-30T06:25:07.688Z,14.63
2024-04-30T06:26:07.721Z,14.77
2024-04-30T06:27:07.637Z,14.88
2024-04-30T06:28:07.654Z,14.92
2024-04-30T06:29:07.629Z,14.99
2024-04-30T06:30:07.617Z,15.02
2024-04-30T06:31:07.660Z,15.14
2024-04-30T06:32:07.672Z,15.28
2024-04-30T06:33:07.698Z,15.42
2024-04-30T06:34:07.637Z,15.54
2024-04-30T06:35:07.564Z,15.67
2024-04-30T06:36:07.540Z,15.79
2024-04-30T06:37:07.563Z,15.94
2024-04-30T06:38:07.566Z,16.10
2024-04-30T06:39:07.505Z,16.12
2024-04-30T06:40:07.554Z,16.24
2024-04-30T06:41:07.491Z,16.29
2024-04-30T06:42:07.494Z,16.39
2024-04-30T06:43:07.511Z,16.50
2024-04-30T06:44:07.469Z,16.56
2024-04-30T06:45:07.446Z,16.57
2024-04-30T06:46:07.477Z,16.64
2024-04-30T06:47:08.009Z,16.64
2024-04-30T06:48:07.485Z,16.74
2024-04-30T06:49:07.596Z,16.87
2024-04-30T06:50:07.405Z,16.84
2024-04-30T06:51:07.382Z,16.87
2024-04-30T06:52:07.401Z,16.94
2024-04-30T06:53:07.353Z,17.11
2024-04-30T06:54:07.350Z,17.19
2024-04-30T06:55:07.375Z,17.27
2024-04-30T06:56:07.335Z,17.39
2024-04-30T06:57:07.810Z,17.60
2024-04-30T06:58:07.321Z,17.74
2024-04-30T06:59:07.302Z,17.94
2024-04-30T07:00:07.289Z,18.00
2024-04-30T07:01:07.390Z,18.16
2024-04-30T07:02:07.366Z,18.25
2024-04-30T07:03:07.294Z,18.40
2024-04-30T07:04:07.360Z,18.58
2024-04-30T07:05:07.417Z,18.43
2024-04-30T07:06:07.271Z,18.84
2024-04-30T07:07:07.247Z,19.00
2024-04-30T07:08:07.230Z,19.18
2024-04-30T07:09:07.192Z,19.30
2024-04-30T07:10:07.214Z,19.54
2024-04-30T07:11:07.281Z,19.67
2024-04-30T07:12:07.174Z,20.10
2024-04-30T07:13:07.144Z,20.66
2024-04-30T07:14:07.153Z,21.07
2024-04-30T07:15:07.137Z,21.50
2024-04-30T07:16:07.193Z,21.96
2024-04-30T07:17:08.984Z,22.26
2024-04-30T07:18:07.205Z,22.50
2024-04-30T07:19:07.116Z,22.87
2024-04-30T07:20:07.107Z,23.13
2024-04-30T07:21:07.072Z,23.41
2024-04-30T07:22:07.067Z,23.74
2024-04-30T07:23:07.057Z,23.92
2024-04-30T07:24:07.051Z,23.88
2024-04-30T07:25:07.615Z,23.39
2024-04-30T07:26:07.024Z,23.08
2024-04-30T07:27:06.996Z,22.33
2024-04-30T07:28:07.032Z,21.50
2024-04-30T07:29:07.001Z,21.43
2024-04-30T07:30:06.973Z,21.50
2024-04-30T07:31:07.029Z,21.89
2024-04-30T07:32:06.980Z,22.28
2024-04-30T07:33:07.050Z,22.44
2024-04-30T07:34:07.011Z,23.18
2024-04-30T07:35:07.005Z,24.01
2024-04-30T07:36:06.939Z,24.74
2024-04-30T07:37:06.908Z,25.29
2024-04-30T07:38:06.891Z,25.21
2024-04-30T07:39:06.879Z,24.78
2024-04-30T07:40:06.904Z,25.32
2024-04-30T07:41:06.872Z,25.66
2024-04-30T07:42:09.253Z,25.70
2024-04-30T07:43:06.867Z,25.13
2024-04-30T07:44:06.849Z,25.07
2024-04-30T07:45:06.851Z,25.47
2024-04-30T07:46:06.860Z,25.93
2024-04-30T07:47:06.834Z,26.40
2024-04-30T07:48:07.014Z,26.88
2024-04-30T07:49:06.797Z,27.37
2024-04-30T07:50:06.792Z,27.96
2024-04-30T07:51:06.764Z,28.44
2024-04-30T07:52:06.816Z,28.81
2024-04-30T07:53:06.754Z,29.12
2024-04-30T07:54:06.741Z,29.42
2024-04-30T07:55:06.756Z,28.93
2024-04-30T07:56:06.694Z,27.60
2024-04-30T07:57:06.711Z,26.77
2024-04-30T07:58:06.743Z,26.06
2024-04-30T07:59:06.673Z,26.68
2024-04-30T08:00:06.652Z,27.47
2024-04-30T08:01:06.766Z,28.04
2024-04-30T08:02:06.893Z,28.63
2024-04-30T08:03:06.835Z,29.12
2024-04-30T08:04:06.672Z,27.78
2024-04-30T08:05:06.641Z,26.73
2024-04-30T08:06:14.007Z,26.23
2024-04-30T08:07:06.647Z,26.97
2024-04-30T08:08:06.823Z,26.65
2024-04-30T08:09:06.589Z,26.88
2024-04-30T08:10:06.581Z,27.42
2024-04-30T08:11:06.572Z,26.31
2024-04-30T08:12:06.545Z,25.55
2024-04-30T08:13:06.541Z,25.81
2024-04-30T08:14:06.525Z,25.65
2024-04-30T08:15:06.537Z,25.51
2024-04-30T08:16:06.542Z,25.53
2024-04-30T08:17:06.559Z,25.35
2024-04-30T08:18:06.635Z,26.37
2024-04-30T08:19:06.543Z,27.27
2024-04-30T08:20:06.623Z,28.02
2024-04-30T08:21:06.514Z,28.70
2024-04-30T08:22:06.495Z,27.48
2024-04-30T08:23:06.427Z,26.93
2024-04-30T08:24:06.435Z,27.58
2024-04-30T08:25:06.732Z,27.52
2024-04-30T08:26:06.400Z,27.29
2024-04-30T08:27:06.400Z,27.83
2024-04-30T08:28:06.388Z,28.04
2024-04-30T08:29:06.386Z,28.25
2024-04-30T08:30:06.369Z,28.26
2024-04-30T08:31:06.421Z,28.59
2024-04-30T08:32:06.352Z,29.29
2024-04-30T08:33:06.409Z,29.88
2024-04-30T08:34:06.326Z,30.08
2024-04-30T08:35:06.323Z,30.25
2024-04-30T08:36:06.309Z,30.34
2024-04-30T08:37:06.307Z,30.69
2024-04-30T08:38:06.342Z,30.91
2024-04-30T08:39:06.288Z,30.65
2024-04-30T08:40:06.292Z,31.02
2024-04-30T08:41:06.248Z,31.31
2024-04-30T08:42:06.227Z,29.82
2024-04-30T08:43:06.264Z,29.42
2024-04-30T08:44:06.220Z,29.51
2024-04-30T08:45:06.202Z,30.12
2024-04-30T08:46:06.286Z,30.40
2024-04-30T08:47:06.259Z,30.96
2024-04-30T08:48:06.213Z,30.84
2024-04-30T08:49:06.221Z,29.94
2024-04-30T08:50:15.669Z,30.24
2024-04-30T08:51:06.216Z,30.83
2024-04-30T08:52:06.164Z,30.55
2024-04-30T08:53:06.137Z,29.87
2024-04-30T08:54:06.113Z,30.50
2024-04-30T08:55:06.130Z,31.07
2024-04-30T08:56:09.087Z,31.27
2024-04-30T08:57:06.093Z,31.65
2024-04-30T08:58:06.193Z,31.84
2024-04-30T08:59:06.815Z,32.01
2024-04-30T09:00:06.052Z,31.66
2024-04-30T09:01:06.108Z,30.92
2024-04-30T09:02:06.075Z,31.40
2024-04-30T09:03:06.145Z,31.36
2024-04-30T09:04:06.132Z,30.43
2024-04-30T09:05:06.001Z,30.97
2024-04-30T09:06:06.056Z,31.44
2024-04-30T09:07:06.104Z,31.81
2024-04-30T09:08:06.004Z,31.99
2024-04-30T09:09:05.967Z,32.26
2024-04-30T09:10:06.015Z,31.51
2024-04-30T09:11:05.989Z,30.92
2024-04-30T09:12:05.993Z,29.94
2024-04-30T09:13:05.991Z,29.49
2024-04-30T09:14:05.935Z,29.66
2024-04-30T09:15:05.920Z,29.97
2024-04-30T09:16:06.020Z,30.06
2024-04-30T09:17:05.988Z,29.47
2024-04-30T09:18:06.012Z,29.56
2024-04-30T09:19:05.924Z,30.28
2024-04-30T09:20:05.875Z,31.05
2024-04-30T09:21:16.387Z,31.65
2024-04-30T09:22:05.995Z,32.09
2024-04-30T09:23:05.826Z,32.51
2024-04-30T09:24:05.813Z,31.77
2024-04-30T09:25:05.825Z,31.61
2024-04-30T09:26:05.804Z,31.85
2024-04-30T09:27:05.780Z,32.33
2024-04-30T09:28:05.830Z,32.45
2024-04-30T09:29:05.760Z,32.70
2024-04-30T09:30:05.748Z,32.59
2024-04-30T09:31:05.937Z,32.67
2024-04-30T09:32:05.729Z,32.37
2024-04-30T09:33:05.782Z,32.48
2024-04-30T09:34:05.801Z,32.93
2024-04-30T09:35:05.739Z,33.31
2024-04-30T09:36:07.473Z,33.23
2024-04-30T09:37:05.718Z,33.45
2024-04-30T09:38:05.668Z,33.32
2024-04-30T09:39:05.661Z,33.17
2024-04-30T09:40:05.676Z,33.08
2024-04-30T09:41:05.641Z,32.56
2024-04-30T09:42:05.640Z,32.63
2024-04-30T09:43:05.686Z,31.65
2024-04-30T09:44:05.621Z,30.55
2024-04-30T09:45:05.623Z,30.37
2024-04-30T09:46:05.672Z,30.85
2024-04-30T09:47:05.685Z,31.47
2024-04-30T09:48:05.575Z,31.51
2024-04-30T09:49:08.413Z,30.90
2024-04-30T09:50:05.818Z,31.29
2024-04-30T09:51:05.553Z,31.69
2024-04-30T09:52:05.578Z,32.21
2024-04-30T09:53:05.538Z,31.24
2024-04-30T09:54:05.552Z,31.27
2024-04-30T09:55:05.535Z,31.76
2024-04-30T09:56:05.601Z,31.99
2024-04-30T09:57:05.494Z,32.49
2024-04-30T09:58:05.531Z,32.90
2024-04-30T09:59:05.491Z,33.05
2024-04-30T10:00:05.463Z,33.27
2024-04-30T10:01:05.589Z,33.62
2024-04-30T10:02:05.473Z,33.94
2024-04-30T10:03:05.564Z,34.16
2024-04-30T10:04:05.519Z,34.35
2024-04-30T10:05:05.504Z,34.36
2024-04-30T10:06:05.476Z,32.26
2024-04-30T10:07:05.456Z,31.92
2024-04-30T10:08:05.422Z,32.40
2024-04-30T10:09:05.416Z,31.94
2024-04-30T10:10:05.446Z,30.97
2024-04-30T10:11:05.349Z,30.31
2024-04-30T10:12:05.353Z,29.86
2024-04-30T10:13:05.415Z,30.05
2024-04-30T10:14:05.382Z,30.25
2024-04-30T10:15:05.312Z,31.06
2024-04-30T10:16:05.506Z,31.74
2024-04-30T10:17:05.460Z,32.46
2024-04-30T10:18:05.290Z,33.04
2024-04-30T10:19:05.536Z,33.19
2024-04-30T10:20:05.340Z,32.64
2024-04-30T10:21:05.311Z,32.04
2024-04-30T10:22:05.342Z,32.52
2024-04-30T10:23:05.237Z,33.08
2024-04-30T10:24:05.217Z,32.43
2024-04-30T10:25:05.272Z,32.19
2024-04-30T10:26:05.346Z,32.22
2024-04-30T10:27:05.297Z,32.55
2024-04-30T10:28:05.296Z,32.37
2024-04-30T10:29:05.192Z,32.41
2024-04-30T10:30:05.177Z,32.22
2024-04-30T10:31:05.256Z,31.66
2024-04-30T10:32:05.251Z,32.21
2024-04-30T10:33:05.744Z,32.55
2024-04-30T10:34:05.206Z,33.02
2024-04-30T10:35:05.169Z,33.39
2024-04-30T10:36:05.182Z,33.73
2024-04-30T10:37:05.385Z,34.08
2024-04-30T10:38:05.207Z,34.45
2024-04-30T10:39:05.097Z,34.29
2024-04-30T10:40:05.578Z,33.96
2024-04-30T10:41:05.287Z,31.69
2024-04-30T10:42:05.204Z,32.03
2024-04-30T10:43:05.204Z,32.60
2024-04-30T10:44:05.020Z,33.22
2024-04-30T10:45:05.027Z,32.03
2024-04-30T10:46:05.038Z,30.85
2024-04-30T10:47:05.010Z,30.03
2024-04-30T10:48:05.070Z,29.86
2024-04-30T10:49:06.888Z,29.79
2024-04-30T10:50:16.118Z,30.77
2024-04-30T10:51:04.956Z,31.52
2024-04-30T10:52:04.988Z,32.21
2024-04-30T10:53:04.935Z,32.71
2024-04-30T10:54:04.969Z,33.02
2024-04-30T10:55:04.975Z,33.40
2024-04-30T10:56:04.903Z,33.87
2024-04-30T10:57:04.974Z,34.29
2024-04-30T10:58:04.915Z,34.21
2024-04-30T10:59:04.969Z,34.42
2024-04-30T11:00:04.869Z,34.78
2024-04-30T11:01:05.025Z,34.55
2024-04-30T11:02:04.847Z,32.56
2024-04-30T11:03:04.844Z,32.60
2024-04-30T11:04:04.996Z,33.02
2024-04-30T11:05:04.915Z,33.53
2024-04-30T11:06:04.835Z,33.36
2024-04-30T11:07:04.841Z,32.33
2024-04-30T11:08:04.797Z,32.15
2024-04-30T11:09:04.795Z,31.17
2024-04-30T11:10:04.929Z,31.70
2024-04-30T11:11:04.838Z,31.12
2024-04-30T11:12:04.738Z,31.20
2024-04-30T11:13:04.957Z,32.08
2024-04-30T11:14:04.712Z,32.71
2024-04-30T11:15:04.731Z,33.31
2024-04-30T11:16:10.844Z,33.94
2024-04-30T11:17:04.737Z,33.58
2024-04-30T11:18:04.881Z,33.80
2024-04-30T11:19:04.755Z,34.21
2024-04-30T11:20:04.705Z,33.58
2024-04-30T11:21:04.665Z,33.58
2024-04-30T11:22:04.737Z,33.14
2024-04-30T11:23:04.651Z,32.71
2024-04-30T11:24:04.620Z,32.41
2024-04-30T11:25:04.627Z,31.14
2024-04-30T11:26:04.602Z,31.46
2024-04-30T11:27:04.612Z,30.80
2024-04-30T11:28:04.619Z,31.03
2024-04-30T11:29:22.387Z,31.43
2024-04-30T11:30:04.552Z,31.61
2024-04-30T11:31:04.584Z,31.85
2024-04-30T11:32:04.744Z,32.45
2024-04-30T11:33:04.691Z,32.18
2024-04-30T11:34:04.529Z,31.27
2024-04-30T11:35:04.533Z,30.21
2024-04-30T11:36:05.171Z,30.13
2024-04-30T11:37:04.613Z,31.06
2024-04-30T11:38:04.579Z,31.80
2024-04-30T11:39:04.498Z,31.34
2024-04-30T11:40:04.503Z,30.16
2024-04-30T11:41:04.497Z,30.53
2024-04-30T11:42:14.930Z,31.20
2024-04-30T11:43:04.448Z,31.21
2024-04-30T11:44:04.418Z,31.90
2024-04-30T11:45:04.426Z,32.37
2024-04-30T11:46:04.405Z,32.95
2024-04-30T11:47:04.387Z,32.07
2024-04-30T11:48:04.453Z,31.49
2024-04-30T11:49:04.430Z,31.97
2024-04-30T11:50:04.392Z,32.48
2024-04-30T11:51:04.418Z,33.19
2024-04-30T11:52:04.332Z,33.45
2024-04-30T11:53:04.557Z,33.62
2024-04-30T11:54:04.323Z,33.27
2024-04-30T11:55:04.330Z,32.80
2024-04-30T11:56:04.311Z,33.01
2024-04-30T11:57:04.334Z,33.49
2024-04-30T11:58:04.347Z,33.92
2024-04-30T11:59:04.308Z,33.80
2024-04-30T12:00:04.374Z,34.14
2024-04-30T12:01:04.334Z,34.23
2024-04-30T12:02:04.356Z,34.24
2024-04-30T12:03:04.246Z,34.25
2024-04-30T12:04:04.255Z,34.25
2024-04-30T12:05:04.377Z,34.23
2024-04-30T12:06:04.207Z,34.54
2024-04-30T12:07:04.184Z,34.64
2024-04-30T12:08:04.187Z,34.47
2024-04-30T12:09:04.557Z,34.52
2024-04-30T12:10:04.195Z,34.06
2024-04-30T12:11:04.221Z,33.94
2024-04-30T12:12:04.155Z,32.15
2024-04-30T12:13:04.129Z,30.73
2024-04-30T12:14:04.173Z,30.46
2024-04-30T12:15:04.136Z,29.97
2024-04-30T12:16:04.116Z,30.66
2024-04-30T12:17:04.284Z,30.99
2024-04-30T12:18:04.165Z,31.44
2024-04-30T12:19:04.106Z,32.08
2024-04-30T12:20:04.066Z,32.08
2024-04-30T12:21:04.112Z,32.23
2024-04-30T12:22:04.046Z,32.67
2024-04-30T12:23:04.045Z,33.09
2024-04-30T12:24:04.027Z,33.58
2024-04-30T12:25:04.006Z,33.89
2024-04-30T12:26:04.012Z,34.06
2024-04-30T12:27:04.018Z,34.21
2024-04-30T12:28:04.051Z,34.35
2024-04-30T12:29:03.982Z,34.02
2024-04-30T12:30:03.972Z,33.59
2024-04-30T12:31:03.956Z,33.73
2024-04-30T12:32:06.885Z,33.20
2024-04-30T12:33:03.983Z,33.30
2024-04-30T12:34:03.925Z,33.23
2024-04-30T12:35:03.924Z,32.89
2024-04-30T12:36:03.909Z,33.15
2024-04-30T12:37:03.921Z,32.45
2024-04-30T12:38:03.915Z,32.58
2024-04-30T12:39:03.864Z,32.64
2024-04-30T12:40:06.615Z,32.08
2024-04-30T12:41:04.058Z,31.47
2024-04-30T12:42:03.863Z,31.66
2024-04-30T12:43:03.834Z,32.04
2024-04-30T12:44:03.867Z,32.12
2024-04-30T12:45:03.814Z,32.55
2024-04-30T12:46:05.366Z,32.46
2024-04-30T12:47:03.803Z,31.36
2024-04-30T12:48:03.926Z,30.73
2024-04-30T12:49:03.773Z,29.95
2024-04-30T12:50:03.804Z,30.72
2024-04-30T12:51:03.777Z,31.43
2024-04-30T12:52:03.799Z,31.31
2024-04-30T12:53:03.795Z,31.43
2024-04-30T12:54:03.723Z,31.92
2024-04-30T12:55:03.702Z,32.38
2024-04-30T12:56:03.741Z,32.45
2024-04-30T12:57:03.684Z,31.71
2024-04-30T12:58:03.686Z,31.73
2024-04-30T12:59:03.669Z,32.30
2024-04-30T13:00:03.756Z,32.26
2024-04-30T13:01:03.710Z,32.63